Time;durP1;ratioP1;P1;durP2;ratioP2;P2;SDS_P1;SDS_P2;PMS_P1;PMS_P2;Temp;Humidity;BMP_temperature;BMP_pressure;BME280_temperature;BME280_humidity;BME280_pressure;Samples;Min_cycle;Max_cycle;Signal;HPM_P1;HPM_P2
2023/03/03 00:00:48;;;;;;;;;;;;;;;-144.99;100.00;52476.63;5033464;28;20362;-64
2023/03/03 00:03:16;;;;;;;;;;;;;;;-144.99;100.00;52478.66;5028277;28;20454;-64
2023/03/03 00:05:44;;;;;;;;;;;;;;;-144.99;100.00;52431.78;5027533;28;20384;-63
2023/03/03 00:08:10;;;;;;;;;;;;;;;-144.99;100.00;52452.16;5025784;28;19929;-63
2023/03/03 00:10:37;;;;;;;;;;;;;;;-144.99;100.00;52492.94;5029381;28;19975;-63
2023/03/03 00:13:03;;;;;;;;;;;;;;;-144.99;100.00;52480.72;5029179;28;19961;-62
2023/03/03 00:15:31;;;;;;;;;;;;;;;-144.99;100.00;52480.72;5028829;28;20398;-62
2023/03/03 00:17:59;;;;;;;;;;;;;;;-144.99;100.00;52488.84;5028907;28;19968;-62
2023/03/03 00:20:27;;;;;;;;;;;;;;;-144.99;100.00;52456.25;5028621;28;19995;-62
2023/03/03 00:22:55;;;;;;;;;;;;;;;-144.99;100.00;52486.81;5028707;28;19973;-64
2023/03/03 00:25:27;;;;;;;;;;;;;;;-144.99;100.00;52488.84;5029346;28;20199;-64
2023/03/03 00:27:54;;;;;;;;;;;;;;;-144.99;100.00;52476.63;5028718;28;19933;-67
2023/03/03 00:30:23;;;;;;;;;;;;;;;-144.99;100.00;52472.56;5023221;28;19956;-67
2023/03/03 00:32:51;;;;;;;;;;;;;;;-144.99;100.00;52513.31;5027778;28;19935;-68
2023/03/03 00:35:23;;;;;;;;;;;;;;;-144.99;100.00;52480.72;5027894;28;20028;-66
2023/03/03 00:37:51;;;;;;;;;;;;;;;-144.99;100.00;52458.28;5023336;28;19925;-69
2023/03/03 00:40:24;;;;;;;;;;;;;;;-144.99;100.00;52472.56;5028409;28;19925;-68
2023/03/03 00:42:51;;;;;;;;;;;;;;;-144.99;100.00;52476.63;5027807;28;19968;-67
2023/03/03 00:45:24;;;;;;;;;;;;;;;-144.99;100.00;52492.94;5026166;28;19993;-67
2023/03/03 00:47:50;;;;;;;;;;;;;;;-144.99;100.00;52472.56;5027979;28;20011;-67
2023/03/03 00:50:28;;;;;;;;;;;;;;;-144.99;100.00;52476.63;5027224;28;19972;-68
2023/03/03 00:53:00;;;;;;;;;;;;;;;-144.99;100.00;52501.09;5027502;28;20018;-68
2023/03/03 00:55:27;;;;;;;;;;;;;;;-144.99;100.00;52490.91;5026662;28;19925;-68
2023/03/03 00:57:54;;;;;;;;;;;;;;;-144.99;100.00;52488.84;5027764;28;20022;-69
2023/03/03 01:00:20;;;;;;;;;;;;;;;-144.99;100.00;52464.41;5027125;28;19998;-67
2023/03/03 01:02:47;;;;;;;;;;;;;;;-144.99;100.00;52509.25;5027798;28;19944;-68
2023/03/03 01:05:14;;;;;;;;;;;;;;;-144.99;100.00;52456.25;5027236;28;19937;-68
2023/03/03 01:07:41;;;;;;;;;;;;;;;-144.99;100.00;52458.28;5027346;28;19999;-68
2023/03/03 01:10:08;;;;;;;;;;;;;;;-144.99;100.00;52480.72;5025356;28;19933;-68
2023/03/03 01:12:37;;;;;;;;;;;;;;;-144.99;100.00;52488.84;5027170;28;19975;-72
2023/03/03 01:15:04;;;;;;;;;;;;;;;-144.99;100.00;52480.72;5028299;28;19961;-73
2023/03/03 01:17:31;;;;;;;;;;;;;;;-144.99;100.00;52484.78;5024841;28;19929;-70
2023/03/03 01:19:57;;;;;;;;;;;;;;;-144.99;100.00;52468.47;5028565;28;19929;-70
2023/03/03 01:22:24;;;;;;;;;;;;;;;-144.99;100.00;52460.31;5022824;28;19987;-70
2023/03/03 01:24:50;;;;;;;;;;;;;;;-144.99;100.00;52497.00;5028657;28;19925;-70
2023/03/03 01:27:17;;;;;;;;;;;;;;;-144.99;100.00;52482.75;5028372;28;19971;-68
2023/03/03 01:29:45;;;;;;;;;;;;;;;-144.99;100.00;52478.66;5025310;28;19929;-69
2023/03/03 01:32:11;;;;;;;;;;;;;;;-144.99;100.00;52484.78;5027872;28;19956;-69
2023/03/03 01:34:38;;;;;;;;;;;;;;;-144.99;100.00;52441.97;5030598;28;19925;-68
2023/03/03 01:37:04;;;;;;;;;;;;;;;-144.99;100.00;52448.09;5030197;28;19991;-68
2023/03/03 01:39:31;;;;;;;;;;;;;;;-144.99;100.00;52478.66;5029962;28;20070;-68
2023/03/03 01:41:57;;;;;;;;;;;;;;;-144.99;100.00;52480.72;5029692;28;19983;-69
2023/03/03 01:44:24;;;;;;;;;;;;;;;-144.99;100.00;52484.78;5029251;28;20320;-70
2023/03/03 01:46:55;;;;;;;;;;;;;;;-144.99;100.00;52497.00;5017838;28;19987;-70
2023/03/03 01:49:23;;;;;;;;;;;;;;;-144.99;100.00;52499.06;5027527;28;19937;-71
2023/03/03 01:51:52;;;;;;;;;;;;;;;-144.99;100.00;52480.72;5026180;28;19929;-69
2023/03/03 01:54:21;;;;;;;;;;;;;;;-144.99;100.00;52476.63;5021947;28;19991;-72
2023/03/03 01:56:49;;;;;;;;;;;;;;;-144.99;100.00;52501.09;5022719;28;19925;-73
2023/03/03 01:59:17;;;;;;;;;;;;;;;-144.99;100.00;52513.31;5026819;28;20381;-72
2023/03/03 02:01:43;;;;;;;;;;;;;;;-144.99;100.00;52431.78;5027179;28;20214;-71
2023/03/03 02:04:12;;;;;;;;;;;;;;;-144.99;100.00;52468.47;5021114;28;20502;-73
2023/03/03 02:06:40;;;;;;;;;;;;;;;-144.99;100.00;52527.59;5023299;28;19925;-73
2023/03/03 02:09:11;;;;;;;;;;;;;;;-144.99;100.00;52503.13;5026917;28;19925;-76
2023/03/03 02:11:38;;;;;;;;;;;;;;;-144.99;100.00;52468.47;5027808;28;20362;-77
2023/03/03 02:14:05;;;;;;;;;;;;;;;-144.99;100.00;52488.84;5022674;28;19937;-78
2023/03/03 02:16:31;;;;;;;;;;;;;;;-144.99;100.00;52470.50;5031441;28;19979;-80
2023/03/03 02:18:58;;;;;;;;;;;;;;;-144.99;100.00;52474.59;5031554;28;19979;-80
2023/03/03 02:21:27;;;;;;;;;;;;;;;-144.99;100.00;52480.72;5016097;28;19933;-79
2023/03/03 02:23:57;;;;;;;;;;;;;;;-144.99;100.00;52492.94;5034402;28;19965;-78
2023/03/03 02:26:26;;;;;;;;;;;;;;;-144.99;100.00;52484.78;5030738;28;20371;-79
2023/03/03 02:28:53;;;;;;;;;;;;;;;-144.99;100.00;52456.25;5028775;28;19975;-78
2023/03/03 02:31:20;;;;;;;;;;;;;;;-144.99;100.00;52490.91;5024969;28;19929;-78
2023/03/03 02:33:48;;;;;;;;;;;;;;;-144.99;100.00;52488.84;5034511;28;21553;-78
2023/03/03 02:36:15;;;;;;;;;;;;;;;-144.99;100.00;52472.56;5041090;28;19925;-77
2023/03/03 02:38:44;;;;;;;;;;;;;;;-144.99;100.00;52497.00;5027262;28;19971;-79
2023/03/03 02:41:13;;;;;;;;;;;;;;;-144.99;100.00;52501.09;5028509;28;19952;-72
2023/03/03 02:43:44;;;;;;;;;;;;;;;-144.99;100.00;52509.25;5022704;28;20295;-71
2023/03/03 02:46:10;;;;;;;;;;;;;;;-144.99;100.00;52468.47;5027235;28;19928;-71
2023/03/03 02:48:37;;;;;;;;;;;;;;;-144.99;100.00;52484.78;5029034;28;19925;-69
2023/03/03 02:51:04;;;;;;;;;;;;;;;-144.99;100.00;52468.47;5035075;28;20468;-69
2023/03/03 02:53:30;;;;;;;;;;;;;;;-144.99;100.00;52556.13;5034484;28;19929;-69
2023/03/03 02:55:57;;;;;;;;;;;;;;;-144.99;100.00;52437.91;5035181;28;19933;-68
2023/03/03 02:58:23;;;;;;;;;;;;;;;-144.99;100.00;52505.16;5033180;28;19952;-72
2023/03/03 03:00:51;;;;;;;;;;;;;;;-144.99;100.00;52464.41;5029767;28;20367;-74
2023/03/03 03:03:18;;;;;;;;;;;;;;;-144.99;100.00;52497.00;5031250;28;19925;-73
2023/03/03 03:05:44;;;;;;;;;;;;;;;-144.99;100.00;52482.75;5021969;28;20576;-75
2023/03/03 03:08:11;;;;;;;;;;;;;;;-144.99;100.00;52452.16;5030931;28;19925;-75
2023/03/03 03:10:38;;;;;;;;;;;;;;;-144.99;100.00;52452.16;5042860;28;19971;-74
2023/03/03 03:13:04;;;;;;;;;;;;;;;-144.99;100.00;52468.47;5041105;28;19933;-75
2023/03/03 03:15:31;;;;;;;;;;;;;;;-144.99;100.00;52452.16;5034304;28;20016;-74
2023/03/03 03:17:59;;;;;;;;;;;;;;;-144.99;100.00;52511.28;5037236;28;19940;-74
2023/03/03 03:20:26;;;;;;;;;;;;;;;-144.99;100.00;52492.94;5026768;28;20369;-75
2023/03/03 03:22:52;;;;;;;;;;;;;;;-144.99;100.00;52450.13;5029180;28;20473;-74
2023/03/03 03:25:19;;;;;;;;;;;;;;;-144.99;100.00;52468.47;5030786;28;19937;-75
2023/03/03 03:27:45;;;;;;;;;;;;;;;-144.99;100.00;52460.31;5024802;28;19929;-75
2023/03/03 03:32:39;;;;;;;;;;;;;;;-144.99;100.00;52497.00;5042679;28;19929;-68
2023/03/03 03:35:08;;;;;;;;;;;;;;;-144.99;100.00;52444.03;5033513;28;19982;-66
2023/03/03 03:37:34;;;;;;;;;;;;;;;-144.99;100.00;52509.25;5033761;28;19956;-66
2023/03/03 03:40:01;;;;;;;;;;;;;;;-144.99;100.00;52488.84;5032797;28;19925;-70
2023/03/03 03:42:27;;;;;;;;;;;;;;;-144.99;100.00;52501.09;5030371;28;19925;-69
2023/03/03 03:44:54;;;;;;;;;;;;;;;-144.99;100.00;52476.63;5028981;28;19991;-69
2023/03/03 03:47:20;;;;;;;;;;;;;;;-144.99;100.00;52452.16;5031799;28;20266;-69
2023/03/03 03:49:47;;;;;;;;;;;;;;;-144.99;100.00;52460.31;5031343;28;19925;-67
2023/03/03 03:52:15;;;;;;;;;;;;;;;-144.99;100.00;52517.41;5023839;28;19932;-68
2023/03/03 03:54:41;;;;;;;;;;;;;;;-144.99;100.00;52497.00;5031002;28;19929;-63
2023/03/03 03:57:08;;;;;;;;;;;;;;;-144.99;100.00;52476.63;5024701;28;20370;-65
2023/03/03 03:59:35;;;;;;;;;;;;;;;-144.99;100.00;52468.47;5031096;28;19929;-63
2023/03/03 04:02:01;;;;;;;;;;;;;;;-144.99;100.00;52501.09;5030906;28;19925;-65
2023/03/03 04:04:28;;;;;;;;;;;;;;;-144.99;100.00;52501.09;5025770;28;19929;-64
2023/03/03 04:06:54;;;;;;;;;;;;;;;-144.99;100.00;52458.28;5034384;28;19941;-65
2023/03/03 04:09:22;;;;;;;;;;;;;;;-144.99;100.00;52480.72;5032866;28;19924;-65
2023/03/03 04:11:49;;;;;;;;;;;;;;;-144.99;100.00;52478.66;5030183;28;19925;-66
2023/03/03 04:14:15;;;;;;;;;;;;;;;-144.99;100.00;52529.63;5037291;28;19925;-67
2023/03/03 04:16:42;;;;;;;;;;;;;;;-144.99;100.00;52497.00;5044808;28;19952;-67
2023/03/03 04:19:09;;;;;;;;;;;;;;;-144.99;100.00;52472.56;5035981;28;19975;-65
2023/03/03 04:21:35;;;;;;;;;;;;;;;-144.99;100.00;52472.56;5034201;28;19926;-66
2023/03/03 04:24:02;;;;;;;;;;;;;;;-144.99;100.00;52468.47;5046895;28;20768;-66
2023/03/03 04:26:31;;;;;;;;;;;;;;;-144.99;100.00;52464.41;5041598;28;19991;-65
2023/03/03 04:28:57;;;;;;;;;;;;;;;-144.99;100.00;52505.16;5039567;28;19964;-65
2023/03/03 04:31:24;;;;;;;;;;;;;;;-144.99;100.00;52419.56;5041808;28;19979;-66
2023/03/03 04:33:51;;;;;;;;;;;;;;;-144.99;100.00;52492.94;5039736;28;20072;-64
2023/03/03 04:36:17;;;;;;;;;;;;;;;-144.99;100.00;52486.81;5040089;28;19971;-65
2023/03/03 04:38:44;;;;;;;;;;;;;;;-144.99;100.00;52480.72;5033077;28;19951;-64
2023/03/03 04:41:10;;;;;;;;;;;;;;;-144.99;100.00;52468.47;5039285;28;19925;-65
2023/03/03 04:43:38;;;;;;;;;;;;;;;-144.99;100.00;52531.66;5033087;28;19947;-66
2023/03/03 04:46:05;;;;;;;;;;;;;;;-144.99;100.00;52480.72;5038454;28;19925;-67
2023/03/03 04:48:31;;;;;;;;;;;;;;;-144.99;100.00;52468.47;5036956;28;19948;-68
2023/03/03 04:50:58;;;;;;;;;;;;;;;-144.99;100.00;52505.16;5038118;28;20313;-66
2023/03/03 04:53:25;;;;;;;;;;;;;;;-144.99;100.00;52444.03;5020758;28;21492;-66
2023/03/03 04:55:51;;;;;;;;;;;;;;;-144.99;100.00;52478.66;5040255;28;20275;-66
2023/03/03 04:58:18;;;;;;;;;;;;;;;-144.99;100.00;52460.31;5039942;28;20385;-68
2023/03/03 05:00:46;;;;;;;;;;;;;;;-144.99;100.00;52497.00;5043153;28;19966;-68
2023/03/03 05:03:13;;;;;;;;;;;;;;;-144.99;100.00;52454.22;5039031;28;19936;-68
2023/03/03 05:05:40;;;;;;;;;;;;;;;-144.99;100.00;52452.16;5037993;28;19991;-68
2023/03/03 05:08:07;;;;;;;;;;;;;;;-144.99;100.00;52497.00;5040571;28;19975;-68
2023/03/03 05:10:33;;;;;;;;;;;;;;;-144.99;100.00;52505.16;5038005;28;19925;-67
2023/03/03 05:13:00;;;;;;;;;;;;;;;-144.99;100.00;52480.72;5032618;28;19925;-67
2023/03/03 05:15:27;;;;;;;;;;;;;;;-144.99;100.00;52470.50;5030891;28;19930;-67
2023/03/03 05:17:55;;;;;;;;;;;;;;;-144.99;100.00;52476.63;5030642;28;20402;-69
2023/03/03 05:20:21;;;;;;;;;;;;;;;-144.99;100.00;52480.72;5030417;28;19934;-69
2023/03/03 05:22:48;;;;;;;;;;;;;;;-144.99;100.00;52492.94;5023418;28;19987;-71
2023/03/03 05:25:15;;;;;;;;;;;;;;;-144.99;100.00;52509.25;5027941;28;19987;-70
2023/03/03 05:27:42;;;;;;;;;;;;;;;-144.99;100.00;52488.84;5026883;28;20393;-68
2023/03/03 05:30:09;;;;;;;;;;;;;;;-144.99;100.00;52468.47;5029579;28;19932;-68
2023/03/03 05:32:36;;;;;;;;;;;;;;;-144.99;100.00;52482.75;5029899;28;20439;-68
2023/03/03 05:35:04;;;;;;;;;;;;;;;-144.99;100.00;52494.97;5029757;28;19932;-69
2023/03/03 05:37:31;;;;;;;;;;;;;;;-144.99;100.00;52476.63;5029268;28;19929;-68
2023/03/03 05:39:57;;;;;;;;;;;;;;;-144.99;100.00;52484.78;5030521;28;19936;-68
2023/03/03 05:42:24;;;;;;;;;;;;;;;-144.99;100.00;52488.84;5032004;28;19952;-68
2023/03/03 05:44:51;;;;;;;;;;;;;;;-144.99;100.00;52490.91;5032989;28;19940;-68
2023/03/03 05:47:17;;;;;;;;;;;;;;;-144.99;100.00;52460.31;5032526;28;19925;-68
2023/03/03 05:49:44;;;;;;;;;;;;;;;-144.99;100.00;52464.41;5028129;28;20405;-67
2023/03/03 05:52:11;;;;;;;;;;;;;;;-144.99;100.00;52497.00;5029648;28;19972;-68
2023/03/03 05:54:38;;;;;;;;;;;;;;;-144.99;100.00;52484.78;5028949;28;20444;-68
2023/03/03 05:57:05;;;;;;;;;;;;;;;-144.99;100.00;52464.41;5024352;28;19933;-69
2023/03/03 05:59:31;;;;;;;;;;;;;;;-144.99;100.00;52478.66;5026724;28;20333;-72
2023/03/03 06:01:58;;;;;;;;;;;;;;;-144.99;100.00;52476.63;5024115;28;19995;-72
2023/03/03 06:04:24;;;;;;;;;;;;;;;-144.99;100.00;52513.31;5030645;28;19968;-71
2023/03/03 06:06:51;;;;;;;;;;;;;;;-144.99;100.00;52531.66;5028742;28;19940;-71
2023/03/03 06:09:19;;;;;;;;;;;;;;;-144.99;100.00;52462.34;5028219;28;20039;-72
2023/03/03 06:11:46;;;;;;;;;;;;;;;-144.99;100.00;52490.91;5028770;28;20008;-70
2023/03/03 06:14:13;;;;;;;;;;;;;;;-144.99;100.00;52505.16;4327354;28;10020761;-69
2023/03/03 06:16:39;;;;;;;;;;;;;;;-144.99;100.00;52505.16;5017377;28;19925;-68
2023/03/03 06:19:06;;;;;;;;;;;;;;;-144.99;100.00;52492.94;5038681;28;20425;-69
2023/03/03 06:21:32;;;;;;;;;;;;;;;-144.99;100.00;52456.25;5024506;28;19955;-67
2023/03/03 06:23:59;;;;;;;;;;;;;;;-144.99;100.00;52517.41;5027258;28;19929;-69
2023/03/03 06:26:27;;;;;;;;;;;;;;;-144.99;100.00;52507.19;5029763;28;19979;-68
2023/03/03 06:28:54;;;;;;;;;;;;;;;-144.99;100.00;52460.31;5024621;28;19933;-67
2023/03/03 06:31:20;;;;;;;;;;;;;;;-144.99;100.00;52482.75;5012656;28;19957;-68
2023/03/03 06:33:47;;;;;;;;;;;;;;;-144.99;100.00;52468.47;5021574;28;19983;-67
2023/03/03 06:36:13;;;;;;;;;;;;;;;-144.99;100.00;52468.47;5027263;28;19955;-69
2023/03/03 06:38:40;;;;;;;;;;;;;;;-144.99;100.00;52492.94;5021256;28;19936;-68
2023/03/03 06:41:07;;;;;;;;;;;;;;;-144.99;100.00;52492.94;5026769;28;20103;-67
2023/03/03 06:43:35;;;;;;;;;;;;;;;-144.99;100.00;52462.34;5025908;28;20483;-67
2023/03/03 06:46:02;;;;;;;;;;;;;;;-144.99;100.00;52472.56;5018708;28;19987;-67
2023/03/03 06:48:29;;;;;;;;;;;;;;;-144.99;100.00;52501.09;5021629;28;19933;-69
2023/03/03 06:50:56;;;;;;;;;;;;;;;-144.99;100.00;52478.66;5019053;28;19929;-68
2023/03/03 06:53:22;;;;;;;;;;;;;;;-144.99;100.00;52488.84;5025694;28;20039;-68
2023/03/03 06:55:49;;;;;;;;;;;;;;;-144.99;100.00;52492.94;5023823;28;20015;-68
2023/03/03 06:58:16;;;;;;;;;;;;;;;-144.99;100.00;52513.31;5024653;28;20349;-69
2023/03/03 07:00:45;;;;;;;;;;;;;;;-144.99;100.00;52519.44;5026736;28;19925;-68
2023/03/03 07:03:14;;;;;;;;;;;;;;;-144.99;100.00;52482.75;5025864;28;20587;-68
2023/03/03 07:05:40;;;;;;;;;;;;;;;-144.99;100.00;52505.16;5030811;28;20180;-68
2023/03/03 07:08:11;;;;;;;;;;;;;;;-144.99;100.00;52472.56;5026226;28;19925;-70
2023/03/03 07:10:39;;;;;;;;;;;;;;;-144.99;100.00;52462.34;5023729;28;19972;-68
2023/03/03 07:13:14;;;;;;;;;;;;;;;-144.99;100.00;52480.72;5027585;28;19955;-69
2023/03/03 07:15:41;;;;;;;;;;;;;;;-144.99;100.00;52490.91;5018458;28;19933;-69
2023/03/03 07:18:21;;;;;;;;;;;;;;;-144.99;100.00;52452.16;5026676;28;20403;-68
2023/03/03 07:20:48;;;;;;;;;;;;;;;-144.99;100.00;52480.72;5021896;28;20433;-67
2023/03/03 07:23:18;;;;;;;;;;;;;;;-144.99;100.00;52497.00;5019344;28;19925;-67
2023/03/03 07:25:45;;;;;;;;;;;;;;;-144.99;100.00;52527.59;5027204;28;20217;-69
2023/03/03 07:28:16;;;;;;;;;;;;;;;-144.99;100.00;52460.31;5027599;28;20388;-69
2023/03/03 07:30:43;;;;;;;;;;;;;;;-144.99;100.00;52484.78;5025845;28;19964;-69
2023/03/03 07:33:19;;;;;;;;;;;;;;;-144.99;100.00;52490.91;5024479;28;20386;-67
2023/03/03 07:35:47;;;;;;;;;;;;;;;-144.99;100.00;52468.47;5017147;28;19928;-70
2023/03/03 07:38:23;;;;;;;;;;;;;;;-144.99;100.00;52480.72;5019424;28;20040;-67
2023/03/03 07:40:51;;;;;;;;;;;;;;;-144.99;100.00;52505.16;5023089;28;19930;-69
2023/03/03 07:43:27;;;;;;;;;;;;;;;-144.99;100.00;52486.81;5026650;28;20306;-69
2023/03/03 07:45:55;;;;;;;;;;;;;;;-144.99;100.00;52456.25;5011757;28;19978;-68
2023/03/03 07:48:26;;;;;;;;;;;;;;;-144.99;100.00;52484.78;5020872;28;19960;-68
2023/03/03 07:50:53;;;;;;;;;;;;;;;-144.99;100.00;52511.28;5018193;28;20413;-68
2023/03/03 07:53:27;;;;;;;;;;;;;;;-144.99;100.00;52472.56;5025549;28;20333;-68
2023/03/03 07:55:54;;;;;;;;;;;;;;;-144.99;100.00;52490.91;5027468;28;20377;-69
2023/03/03 07:58:30;;;;;;;;;;;;;;;-144.99;100.00;52456.25;4858660;28;10000242;-70
2023/03/03 08:01:11;;;;;;;;;;;;;;;-144.99;100.00;52472.56;5017463;28;20627;-68
2023/03/03 08:03:39;;;;;;;;;;;;;;;-144.99;100.00;52468.47;5023259;28;19936;-68
2023/03/03 08:06:11;;;;;;;;;;;;;;;-144.99;100.00;52462.34;5028865;28;19929;-70
2023/03/03 08:08:42;;;;;;;;;;;;;;;-144.99;100.00;52480.72;5028575;28;19932;-69
2023/03/03 08:11:09;;;;;;;;;;;;;;;-144.99;100.00;52517.41;5001655;28;20378;-68
2023/03/03 08:13:37;;;;;;;;;;;;;;;-144.99;100.00;52492.94;5029194;28;20016;-68
2023/03/03 08:16:18;;;;;;;;;;;;;;;-144.99;100.00;52464.41;5028661;28;20024;-69
2023/03/03 08:18:47;;;;;;;;;;;;;;;-144.99;100.00;52435.88;5023440;28;19929;-68
2023/03/03 08:21:14;;;;;;;;;;;;;;;-144.99;100.00;52468.47;5026779;28;20051;-68
2023/03/03 08:23:41;;;;;;;;;;;;;;;-144.99;100.00;52468.47;5026117;28;19929;-69
2023/03/03 08:26:08;;;;;;;;;;;;;;;-144.99;100.00;52480.72;5026343;28;19979;-69
2023/03/03 08:28:34;;;;;;;;;;;;;;;-144.99;100.00;52468.47;5028012;28;20700;-69
2023/03/03 08:31:01;;;;;;;;;;;;;;;-144.99;100.00;52456.25;5027404;28;19990;-69
2023/03/03 08:33:27;;;;;;;;;;;;;;;-144.99;100.00;52450.13;5027427;28;20167;-68
2023/03/03 08:35:55;;;;;;;;;;;;;;;-144.99;100.00;52456.25;5026150;28;19929;-69
2023/03/03 08:38:22;;;;;;;;;;;;;;;-144.99;100.00;52486.81;5026955;28;20301;-69
2023/03/03 08:40:50;;;;;;;;;;;;;;;-144.99;100.00;52468.47;5027823;28;20283;-69
2023/03/03 08:43:20;;;;;;;;;;;;;;;-144.99;100.00;52456.25;5025830;28;20129;-69
2023/03/03 08:45:47;;;;;;;;;;;;;;;-144.99;100.00;52484.78;5021190;28;20540;-69
2023/03/03 08:48:15;;;;;;;;;;;;;;;-144.99;100.00;52464.41;5030244;28;19932;-69
2023/03/03 08:50:41;;;;;;;;;;;;;;;-144.99;100.00;52550.00;5026420;28;19925;-68
2023/03/03 08:53:10;;;;;;;;;;;;;;;-144.99;100.00;52464.41;5027294;28;19962;-68
2023/03/03 08:55:36;;;;;;;;;;;;;;;-144.99;100.00;52444.03;5023529;28;20389;-68
2023/03/03 08:58:03;;;;;;;;;;;;;;;-144.99;100.00;52501.09;5025534;28;19972;-68
2023/03/03 09:00:30;;;;;;;;;;;;;;;-144.99;100.00;52472.56;5019001;28;20040;-69
2023/03/03 09:02:56;;;;;;;;;;;;;;;-144.99;100.00;52452.16;5026979;28;19940;-68
2023/03/03 09:05:23;;;;;;;;;;;;;;;-144.99;100.00;52435.88;5019207;28;20611;-68
2023/03/03 09:07:51;;;;;;;;;;;;;;;-144.99;100.00;52476.63;5022969;28;20018;-67
2023/03/03 09:10:21;;;;;;;;;;;;;;;-144.99;100.00;52476.63;5017680;28;20264;-67
2023/03/03 09:12:48;;;;;;;;;;;;;;;-144.99;100.00;52423.63;5026962;28;20376;-67
2023/03/03 09:15:17;;;;;;;;;;;;;;;-144.99;100.00;52492.94;5026901;28;20341;-68
2023/03/03 09:17:43;;;;;;;;;;;;;;;-144.99;100.00;52472.56;5026302;28;19937;-68
2023/03/03 09:20:25;;;;;;;;;;;;;;;-144.99;100.00;52458.28;5019779;28;19957;-68
2023/03/03 09:22:51;;;;;;;;;;;;;;;-144.99;100.00;52460.31;5026882;28;19971;-68
2023/03/03 09:25:22;;;;;;;;;;;;;;;-144.99;100.00;52486.81;5024365;28;20594;-67
2023/03/03 09:27:49;;;;;;;;;;;;;;;-144.99;100.00;52439.94;5023900;28;20416;-68
2023/03/03 09:30:30;;;;;;;;;;;;;;;-144.99;100.00;52433.81;5022171;28;19925;-68
2023/03/03 09:32:57;;;;;;;;;;;;;;;-144.99;100.00;52468.47;5027672;28;19932;-69
2023/03/03 09:35:35;;;;;;;;;;;;;;;-144.99;100.00;52488.84;5025146;28;20020;-69
2023/03/03 09:38:02;;;;;;;;;;;;;;;-144.99;100.00;52456.25;5026289;28;19935;-67
2023/03/03 09:40:40;;;;;;;;;;;;;;;-144.99;100.00;52472.56;5017243;28;20302;-68
2023/03/03 09:43:09;;;;;;;;;;;;;;;-144.99;100.00;52456.25;5019726;28;19933;-68
2023/03/03 09:45:44;;;;;;;;;;;;;;;-144.99;100.00;52452.16;5018451;28;19932;-69
2023/03/03 09:48:29;;;;;;;;;;;;;;;-144.99;100.00;52427.72;5019521;28;19925;-68
2023/03/03 09:51:00;;;;;;;;;;;;;;;-144.99;100.00;52435.88;5018478;28;20398;-68
2023/03/03 09:53:35;;;;;;;;;;;;;;;-144.99;100.00;52423.63;5015697;28;19933;-68
2023/03/03 09:56:09;;;;;;;;;;;;;;;-144.99;100.00;52419.56;5020744;28;19961;-69
2023/03/03 09:58:44;;;;;;;;;;;;;;;-144.99;100.00;52460.31;5021310;28;19929;-68
2023/03/03 10:01:29;;;;;;;;;;;;;;;-144.99;100.00;52439.94;5026411;28;19929;-69
2023/03/03 10:04:07;;;;;;;;;;;;;;;-144.99;100.00;52415.47;5022367;28;19929;-68
2023/03/03 10:06:38;;;;;;;;;;;;;;;-144.99;100.00;52452.16;5017600;28;19929;-69
2023/03/03 10:09:28;;;;;;;;;;;;;;;-144.99;100.00;52454.22;5023406;28;19937;-70
2023/03/03 10:11:59;;;;;;;;;;;;;;;-144.99;100.00;52476.63;5027138;28;19929;-69
2023/03/03 10:14:34;;;;;;;;;;;;;;;-144.99;100.00;52441.97;5018452;28;19976;-69
2023/03/03 10:17:19;;;;;;;;;;;;;;;-144.99;100.00;52444.03;5025285;28;20329;-68
2023/03/03 10:19:49;;;;;;;;;;;;;;;-144.99;100.00;52431.78;5020291;28;19929;-69
2023/03/03 10:22:23;;;;;;;;;;;;;;;-144.99;100.00;52435.88;5019499;28;19929;-66
2023/03/03 10:24:58;;;;;;;;;;;;;;;-144.99;100.00;52429.75;5018830;28;20314;-68
2023/03/03 10:27:34;;;;;;;;;;;;;;;-144.99;100.00;52437.91;5020778;28;20344;-69
2023/03/03 10:30:04;;;;;;;;;;;;;;;-144.99;100.00;52486.81;5021276;28;19930;-68
2023/03/03 10:32:35;;;;;;;;;;;;;;;-144.99;100.00;52446.06;5024111;28;20306;-70
2023/03/03 10:35:09;;;;;;;;;;;;;;;-144.99;100.00;52448.09;5025308;28;20378;-69
2023/03/03 10:37:42;;;;;;;;;;;;;;;-144.99;100.00;52444.03;5027327;28;19936;-68
2023/03/03 10:40:17;;;;;;;;;;;;;;;-144.99;100.00;52407.31;5029716;28;20425;-70
2023/03/03 10:43:00;;;;;;;;;;;;;;;-144.99;100.00;52448.09;5031309;28;19936;-69
2023/03/03 10:45:35;;;;;;;;;;;;;;;-144.99;100.00;52425.66;5021892;28;19952;-68
2023/03/03 10:48:16;;;;;;;;;;;;;;;-144.99;100.00;52415.47;5020384;28;19936;-69
2023/03/03 10:50:49;;;;;;;;;;;;;;;-144.99;100.00;52439.94;5024365;28;20026;-67
2023/03/03 10:53:22;;;;;;;;;;;;;;;-144.99;100.00;52472.56;5029067;28;19983;-68
2023/03/03 10:55:54;;;;;;;;;;;;;;;-144.99;100.00;52433.81;5029557;28;20390;-68
2023/03/03 10:58:26;;;;;;;;;;;;;;;-144.99;100.00;52472.56;5031999;28;20625;-68
2023/03/03 11:00:58;;;;;;;;;;;;;;;-144.99;100.00;52407.31;5032552;28;19925;-69
2023/03/03 11:03:39;;;;;;;;;;;;;;;-144.99;100.00;52452.16;5028273;28;19929;-68
2023/03/03 11:06:09;;;;;;;;;;;;;;;-144.99;100.00;52444.03;5025962;28;20423;-69
2023/03/03 11:08:41;;;;;;;;;;;;;;;-144.99;100.00;52456.25;5025011;28;20671;-69
2023/03/03 11:11:11;;;;;;;;;;;;;;;-144.99;100.00;52480.72;5021745;28;19953;-67
2023/03/03 11:13:45;;;;;;;;;;;;;;;-144.99;100.00;52452.16;5015445;28;19937;-68
2023/03/03 11:16:24;;;;;;;;;;;;;;;-144.99;100.00;52468.47;5027282;28;19929;-68
2023/03/03 11:19:00;;;;;;;;;;;;;;;-144.99;100.00;52446.06;5026815;28;19929;-67
2023/03/03 11:21:29;;;;;;;;;;;;;;;-144.99;100.00;52446.06;5027796;28;19987;-69
2023/03/03 11:24:05;;;;;;;;;;;;;;;-144.99;100.00;52388.97;5029047;28;19933;-68
2023/03/03 11:26:45;;;;;;;;;;;;;;;-144.99;100.00;52454.22;5025420;28;19933;-69
2023/03/03 11:29:18;;;;;;;;;;;;;;;-144.99;100.00;52419.56;5025982;28;19952;-68
2023/03/03 11:31:48;;;;;;;;;;;;;;;-144.99;100.00;52407.31;5030996;28;19925;-68
2023/03/03 11:34:21;;;;;;;;;;;;;;;-144.99;100.00;52374.72;5028941;28;19929;-69
2023/03/03 11:36:49;;;;;;;;;;;;;;;-144.99;100.00;52431.78;5025010;28;19933;-68
2023/03/03 11:39:18;;;;;;;;;;;;;;;-144.99;100.00;52409.38;5022139;28;20368;-67
2023/03/03 11:41:53;;;;;;;;;;;;;;;-144.99;100.00;52444.03;5028707;28;20007;-67
2023/03/03 11:44:24;;;;;;;;;;;;;;;-144.99;100.00;52435.88;5026241;28;20027;-67
2023/03/03 11:46:53;;;;;;;;;;;;;;;-144.99;100.00;52427.72;5019260;28;20419;-71
2023/03/03 11:49:25;;;;;;;;;;;;;;;-144.99;99.98;52407.31;5026967;28;20325;-68
2023/03/03 11:51:56;;;;;;;;;;;;;;;-144.99;99.21;52382.88;5020873;28;20017;-71
2023/03/03 11:54:27;;;;;;;;;;;;;;;-144.99;98.94;52429.75;5026320;28;19929;-68
2023/03/03 11:56:56;;;;;;;;;;;;;;;-144.99;98.33;52431.78;5028480;28;19929;-68
2023/03/03 11:59:38;;;;;;;;;;;;;;;-144.99;97.36;52395.09;5026926;28;19932;-70
2023/03/03 12:02:09;;;;;;;;;;;;;;;-144.99;97.14;52384.91;5025322;28;19929;-69
2023/03/03 12:04:39;;;;;;;;;;;;;;;-144.99;96.23;52376.75;5017743;28;19929;-70
2023/03/03 12:07:14;;;;;;;;;;;;;;;-144.99;96.42;52427.72;5024040;28;19925;-69
2023/03/03 12:09:47;;;;;;;;;;;;;;;-144.99;96.55;52452.16;5022098;28;19983;-68
2023/03/03 12:12:14;;;;;;;;;;;;;;;-144.99;95.96;52431.78;5028218;28;20076;-69
2023/03/03 12:14:59;;;;;;;;;;;;;;;-144.99;96.50;52415.47;5028769;28;20344;-68
2023/03/03 12:17:38;;;;;;;;;;;;;;;-144.99;96.12;52460.31;5027278;28;20186;-69
2023/03/03 12:20:09;;;;;;;;;;;;;;;-144.99;96.15;52403.25;5021876;28;19984;-68
2023/03/03 12:22:42;;;;;;;;;;;;;;;-144.99;97.25;52435.88;5020031;28;19988;-66
2023/03/03 12:25:21;;;;;;;;;;;;;;;-144.99;97.83;52435.88;5023362;28;19933;-67
2023/03/03 12:27:50;;;;;;;;;;;;;;;-144.99;98.19;52429.75;5027384;28;20028;-67
2023/03/03 12:30:23;;;;;;;;;;;;;;;-144.99;98.09;52480.72;5027479;28;19929;-67